createdAt,value
2019-04-06T00:00:16.546Z,11.77
2019-04-06T00:02:45.195Z,12.17
2019-04-06T00:05:14.343Z,12.63
2019-04-06T00:07:43.287Z,12.60
2019-04-06T00:10:12.163Z,13.53
2019-04-06T00:12:40.826Z,12.00
2019-04-06T00:15:09.545Z,11.93
2019-04-06T00:17:38.294Z,12.50
2019-04-06T00:20:07.076Z,13.57
2019-04-06T00:22:35.731Z,11.70
2019-04-06T00:25:06.113Z,12.20
2019-04-06T00:27:34.746Z,12.13
2019-04-06T00:30:04.311Z,12.17
2019-04-06T00:32:34.673Z,10.97
2019-04-06T00:35:04.205Z,13.70
2019-04-06T00:37:33.052Z,12.77
2019-04-06T00:40:01.858Z,13.20
2019-04-06T00:42:30.567Z,12.13
2019-04-06T00:44:59.295Z,12.70
2019-04-06T00:47:27.875Z,12.43
2019-04-06T00:49:56.567Z,12.80
2019-04-06T00:52:25.528Z,13.60
2019-04-06T00:54:55.338Z,12.73
2019-04-06T00:57:24.343Z,12.23
2019-04-06T00:59:53.226Z,13.13
2019-04-06T01:02:21.975Z,12.70
2019-04-06T01:04:50.633Z,11.57
2019-04-06T01:07:19.311Z,11.90
2019-04-06T01:09:48.759Z,13.03
2019-04-06T01:12:17.761Z,14.13
2019-04-06T01:14:46.576Z,13.63
2019-04-06T01:17:15.240Z,13.97
2019-04-06T01:19:44.102Z,12.70
2019-04-06T01:22:12.867Z,14.10
2019-04-06T01:24:41.528Z,13.40
2019-04-06T01:27:10.207Z,13.37
2019-04-06T01:29:38.868Z,13.23
2019-04-06T01:32:07.618Z,13.43
2019-04-06T01:34:36.486Z,12.10
2019-04-06T01:37:05.266Z,13.40
2019-04-06T01:39:33.896Z,13.77
2019-04-06T01:42:02.517Z,12.03
2019-04-06T01:44:31.331Z,13.30
2019-04-06T01:46:59.987Z,12.43
2019-04-06T01:49:28.824Z,13.37
2019-04-06T01:51:57.501Z,13.33
2019-04-06T01:54:26.175Z,12.90
2019-04-06T01:56:54.909Z,12.40
2019-04-06T01:59:23.637Z,12.10
2019-04-06T02:01:53.967Z,13.20
2019-04-06T02:04:22.729Z,12.50
2019-04-06T02:06:51.362Z,12.93
2019-04-06T02:09:22.459Z,11.80
2019-04-06T02:11:51.277Z,12.90
2019-04-06T02:14:20.006Z,13.10
2019-04-06T02:16:48.685Z,12.83
2019-04-06T02:19:17.383Z,11.40
2019-04-06T02:21:46.554Z,12.87
2019-04-06T02:24:15.367Z,12.50
2019-04-06T02:26:44.158Z,11.30
2019-04-06T02:29:12.808Z,12.97
2019-04-06T02:31:57.836Z,13.20
2019-04-06T02:34:28.946Z,12.57
2019-04-06T02:37:08.221Z,13.87
2019-04-06T02:39:47.697Z,12.83
2019-04-06T02:42:18.032Z,13.10
2019-04-06T02:44:46.609Z,12.10
2019-04-06T02:47:15.506Z,12.50
2019-04-06T02:49:44.514Z,12.87
2019-04-06T02:52:13.147Z,12.20
2019-04-06T02:54:41.878Z,11.87
2019-04-06T02:57:10.607Z,13.83
2019-04-06T02:59:39.391Z,12.67
2019-04-06T03:02:08.034Z,13.17
2019-04-06T03:04:36.770Z,13.17
2019-04-06T03:07:05.446Z,13.57
2019-04-06T03:09:34.354Z,13.43
2019-04-06T03:12:03.259Z,12.83
2019-04-06T03:14:32.071Z,12.70
2019-04-06T03:17:00.898Z,12.90
2019-04-06T03:19:29.661Z,12.57
2019-04-06T03:21:58.367Z,12.73
2019-04-06T03:24:26.967Z,13.50
2019-04-06T03:27:01.983Z,13.83
2019-04-06T03:29:25.933Z,13.83
2019-04-06T03:31:54.653Z,13.17
2019-04-06T03:34:23.477Z,12.53
2019-04-06T03:36:52.210Z,11.97
2019-04-06T03:39:20.880Z,12.60
2019-04-06T03:41:49.571Z,13.13
2019-04-06T03:44:18.772Z,13.60
2019-04-06T03:46:47.584Z,13.33
2019-04-06T03:49:16.388Z,12.67
2019-04-06T03:51:45.275Z,12.50
2019-04-06T03:54:14.035Z,12.53
2019-04-06T03:56:42.692Z,12.20
2019-04-06T03:59:11.433Z,12.10
2019-04-06T04:01:39.933Z,13.87
2019-04-06T04:04:08.704Z,14.43
2019-04-06T04:06:37.497Z,12.47
2019-04-06T04:09:06.548Z,13.93
2019-04-06T04:11:35.483Z,12.33
2019-04-06T04:14:04.388Z,12.80
2019-04-06T04:16:33.041Z,12.40
2019-04-06T04:19:01.666Z,12.90
2019-04-06T04:21:30.326Z,14.03
2019-04-06T04:23:59.134Z,13.13
2019-04-06T04:26:27.811Z,12.73
2019-04-06T04:28:56.510Z,14.00
2019-04-06T04:31:25.296Z,12.87
2019-04-06T04:33:54.116Z,13.30
2019-04-06T04:36:22.752Z,13.30
2019-04-06T04:38:51.490Z,12.83
2019-04-06T04:41:20.194Z,12.60
2019-04-06T04:43:49.022Z,12.87
2019-04-06T04:46:17.960Z,12.60
2019-04-06T04:48:46.573Z,12.63
2019-04-06T04:51:15.248Z,12.27
2019-04-06T04:53:43.948Z,12.97
2019-04-06T04:56:12.594Z,13.03
2019-04-06T04:58:41.365Z,13.17
2019-04-06T05:01:10.146Z,12.90
2019-04-06T05:03:39.090Z,13.23
2019-04-06T05:06:08.500Z,13.30
2019-04-06T05:08:39.058Z,12.80
2019-04-06T05:11:07.896Z,11.57
2019-04-06T05:13:36.778Z,11.23
2019-04-06T05:16:14.738Z,12.37
2019-04-06T05:18:43.951Z,11.77
2019-04-06T05:21:14.206Z,11.67
2019-04-06T05:23:42.849Z,12.20
2019-04-06T05:26:11.660Z,12.90
2019-04-06T05:28:40.362Z,12.70
2019-04-06T05:31:09.120Z,13.50
2019-04-06T05:33:38.243Z,11.37
2019-04-06T05:36:07.006Z,13.73
2019-04-06T05:38:35.854Z,14.13
2019-04-06T05:41:04.949Z,12.97
2019-04-06T05:43:36.194Z,13.23
2019-04-06T05:46:04.969Z,13.10
2019-04-06T05:48:33.686Z,11.30
2019-04-06T05:51:02.347Z,12.57
2019-04-06T05:53:31.018Z,9.67
2019-04-06T05:55:59.771Z,12.30
2019-04-06T05:58:28.495Z,12.13
2019-04-06T06:00:57.196Z,11.53
2019-04-06T06:03:25.900Z,9.60
2019-04-06T06:05:54.611Z,11.77
2019-04-06T06:08:30.621Z,8.77
2019-04-06T06:10:59.735Z,9.97
2019-04-06T06:13:28.819Z,11.30
2019-04-06T06:15:57.891Z,10.23
2019-04-06T06:18:29.506Z,11.83
2019-04-06T06:21:03.421Z,11.13
2019-04-06T06:23:32.443Z,10.43
2019-04-06T06:26:01.214Z,11.83
2019-04-06T06:28:30.460Z,10.60
2019-04-06T06:31:15.181Z,12.00
2019-04-06T06:33:44.233Z,11.90
2019-04-06T06:36:13.288Z,11.97
2019-04-06T06:38:41.863Z,9.27
2019-04-06T06:41:10.839Z,12.23
2019-04-06T06:43:39.574Z,12.23
2019-04-06T06:46:08.209Z,8.73
2019-04-06T06:48:37.118Z,11.67
2019-04-06T06:51:05.790Z,11.07
2019-04-06T06:53:35.079Z,11.90
2019-04-06T06:56:04.828Z,11.40
2019-04-06T06:58:33.705Z,12.90
2019-04-06T07:01:21.715Z,12.53
2019-04-06T07:03:50.836Z,12.50
2019-04-06T07:06:19.486Z,10.70
2019-04-06T07:08:48.241Z,12.00
2019-04-06T07:11:17.104Z,12.10
2019-04-06T07:13:46.036Z,12.77
2019-04-06T07:16:15.086Z,11.03
2019-04-06T07:18:43.959Z,12.40
2019-04-06T07:21:12.884Z,10.80
2019-04-06T07:23:41.969Z,10.07
2019-04-06T07:26:10.758Z,12.07
2019-04-06T07:28:40.634Z,11.20
2019-04-06T07:31:09.420Z,12.73
2019-04-06T07:33:38.265Z,12.67
2019-04-06T07:36:07.029Z,12.27
2019-04-06T07:38:37.974Z,11.47
2019-04-06T07:41:06.958Z,10.97
2019-04-06T07:43:35.902Z,12.03
2019-04-06T07:46:04.765Z,10.63
2019-04-06T07:48:33.865Z,10.13
2019-04-06T07:51:02.656Z,9.33
2019-04-06T07:53:41.367Z,9.33
2019-04-06T07:56:08.934Z,10.18
2019-04-06T07:58:47.867Z,10.60
2019-04-06T08:01:08.384Z,11.47
2019-04-06T08:03:37.217Z,10.60
2019-04-06T08:06:06.292Z,7.80
2019-04-06T08:08:34.907Z,10.90
2019-04-06T08:11:03.654Z,10.10
2019-04-06T08:13:32.793Z,10.63
2019-04-06T08:16:01.948Z,8.18
2019-04-06T08:18:30.841Z,10.30
2019-04-06T08:20:59.781Z,10.03
2019-04-06T08:23:28.679Z,11.73
2019-04-06T08:25:57.876Z,9.98
2019-04-06T08:28:26.773Z,10.10
2019-04-06T08:30:55.560Z,10.90
2019-04-06T08:33:26.452Z,9.95
2019-04-06T08:35:55.368Z,10.23
2019-04-06T08:38:24.144Z,10.08
2019-04-06T08:40:52.815Z,9.88
2019-04-06T08:43:21.705Z,10.03
2019-04-06T08:45:50.638Z,9.70
2019-04-06T08:48:19.531Z,9.08
2019-04-06T08:50:48.295Z,8.63
2019-04-06T08:53:17.036Z,9.53
2019-04-06T08:55:46.672Z,7.15
2019-04-06T08:58:15.392Z,10.05
2019-04-06T09:00:44.333Z,8.33
2019-04-06T09:03:13.626Z,9.18
2019-04-06T09:05:42.719Z,9.13
2019-04-06T09:08:12.919Z,8.43
2019-04-06T09:10:42.787Z,8.13
2019-04-06T09:13:11.748Z,9.48
2019-04-06T09:15:40.801Z,8.53
2019-04-06T09:18:09.755Z,8.40
2019-04-06T09:20:38.705Z,8.88
2019-04-06T09:23:07.610Z,9.30
2019-04-06T09:25:36.325Z,9.43
2019-04-06T09:28:05.193Z,9.08
2019-04-06T09:30:40.490Z,8.68
2019-04-06T09:33:09.452Z,9.38
2019-04-06T09:35:38.968Z,8.33
2019-04-06T09:38:09.356Z,8.83
2019-04-06T09:40:41.799Z,8.50
2019-04-06T09:43:10.932Z,7.45
2019-04-06T09:45:42.115Z,6.62
2019-04-06T09:48:21.444Z,5.87
2019-04-06T09:51:04.194Z,7.55
2019-04-06T09:53:50.759Z,7.53
2019-04-06T09:56:21.129Z,6.62
2019-04-06T09:58:51.602Z,6.40
2019-04-06T10:01:46.853Z,6.35
2019-04-06T10:04:33.574Z,8.10
2019-04-06T10:07:06.723Z,6.70
2019-04-06T10:09:40.222Z,7.22
2019-04-06T10:12:27.007Z,6.67
2019-04-06T10:15:13.622Z,6.58
2019-04-06T10:18:01.000Z,6.65
2019-04-06T10:20:31.574Z,4.67
2019-04-06T10:23:18.479Z,7.80
2019-04-06T10:25:48.816Z,6.20
2019-04-06T10:28:25.316Z,6.03
2019-04-06T10:30:58.634Z,4.65
2019-04-06T10:33:37.610Z,6.85
2019-04-06T10:36:27.048Z,7.00
2019-04-06T10:38:57.692Z,7.85
2019-04-06T10:41:31.146Z,6.65
2019-04-06T10:44:21.929Z,7.33
2019-04-06T10:47:04.662Z,7.47
2019-04-06T10:49:35.450Z,6.97
2019-04-06T10:52:12.224Z,7.27
2019-04-06T10:54:42.672Z,7.15
2019-04-06T10:57:25.517Z,8.55
2019-04-06T11:00:07.831Z,7.55
2019-04-06T11:02:38.723Z,6.67
2019-04-06T11:05:10.304Z,6.60
2019-04-06T11:07:54.264Z,6.70
2019-04-06T11:10:33.782Z,6.30
2019-04-06T11:13:09.901Z,7.45
2019-04-06T11:15:43.141Z,6.35
2019-04-06T11:18:16.437Z,8.23
2019-04-06T11:20:49.814Z,7.35
2019-04-06T11:23:36.425Z,7.60
2019-04-06T11:26:17.086Z,7.58
2019-04-06T11:29:06.270Z,8.33
2019-04-06T11:31:54.000Z,8.18
2019-04-06T11:34:30.016Z,6.00
2019-04-06T11:37:09.518Z,8.43
2019-04-06T11:39:51.761Z,7.42
2019-04-06T11:42:37.753Z,7.53
2019-04-06T11:45:09.927Z,8.90
2019-04-06T11:47:49.245Z,8.33
2019-04-06T11:50:19.621Z,5.60
2019-04-06T11:52:52.641Z,8.15
2019-04-06T11:55:39.400Z,7.35
2019-04-06T11:58:26.747Z,7.65
2019-04-06T12:01:13.922Z,7.90
2019-04-06T12:03:50.510Z,7.55
2019-04-06T12:06:20.896Z,6.37
2019-04-06T12:08:57.327Z,8.05
2019-04-06T12:11:33.325Z,7.65
2019-04-06T12:14:09.971Z,8.30
2019-04-06T12:16:49.219Z,9.38
2019-04-06T12:19:19.571Z,7.50
2019-04-06T12:21:58.980Z,8.47
2019-04-06T12:24:45.661Z,7.35
2019-04-06T12:27:16.120Z,6.75
2019-04-06T12:30:05.738Z,8.00
2019-04-06T12:32:36.047Z,7.90
2019-04-06T12:35:08.037Z,8.38
2019-04-06T12:37:47.811Z,8.10
2019-04-06T12:40:21.180Z,8.13
2019-04-06T12:43:03.349Z,8.40
2019-04-06T12:45:50.740Z,7.37
2019-04-06T12:48:37.153Z,8.50
2019-04-06T12:51:24.152Z,8.90
2019-04-06T12:53:54.572Z,8.05
2019-04-06T12:56:34.717Z,7.78
2019-04-06T12:59:21.828Z,8.08
2019-04-06T13:01:52.736Z,8.25
2019-04-06T13:04:39.327Z,7.07
2019-04-06T13:07:26.859Z,6.05
2019-04-06T13:09:57.331Z,7.80
2019-04-06T13:12:36.791Z,8.30
2019-04-06T13:15:11.978Z,8.23
2019-04-06T13:17:42.372Z,6.50
2019-04-06T13:20:15.459Z,7.92
2019-04-06T13:22:51.951Z,7.90
2019-04-06T13:25:22.382Z,7.80
2019-04-06T13:27:55.427Z,7.43
2019-04-06T13:30:41.214Z,7.73
2019-04-06T13:33:14.346Z,8.63
2019-04-06T13:35:47.781Z,9.10
2019-04-06T13:38:21.076Z,9.20
2019-04-06T13:41:07.856Z,8.48
2019-04-06T13:43:38.190Z,8.73
2019-04-06T13:46:23.798Z,7.97
2019-04-06T13:48:54.366Z,6.90
2019-04-06T13:51:41.490Z,7.80
2019-04-06T13:54:29.694Z,7.60
2019-04-06T13:57:00.509Z,7.57
2019-04-06T13:59:34.251Z,8.73
2019-04-06T14:02:16.848Z,8.37
2019-04-06T14:04:49.999Z,7.83
2019-04-06T14:07:23.674Z,7.20
2019-04-06T14:10:05.958Z,8.07
2019-04-06T14:12:54.549Z,9.03
2019-04-06T14:15:25.374Z,7.50
2019-04-06T14:18:12.999Z,7.73
2019-04-06T14:20:49.584Z,7.72
2019-04-06T14:23:20.147Z,7.57
2019-04-06T14:26:11.110Z,7.95
2019-04-06T14:28:54.557Z,8.07
2019-04-06T14:31:43.230Z,8.07
2019-04-06T14:34:32.873Z,8.17
2019-04-06T14:37:21.684Z,7.20
2019-04-06T14:40:08.583Z,8.13
2019-04-06T14:42:41.312Z,7.80
2019-04-06T14:45:25.791Z,7.77
2019-04-06T14:48:05.047Z,7.50
2019-04-06T14:50:41.179Z,6.17
2019-04-06T14:53:14.695Z,8.97
2019-04-06T14:55:45.368Z,8.30
2019-04-06T14:58:25.123Z,8.30
2019-04-06T15:00:55.586Z,8.70
2019-04-06T15:03:35.590Z,8.17
2019-04-06T15:06:14.926Z,8.73
2019-04-06T15:08:45.551Z,8.27
2019-04-06T15:11:32.590Z,8.77
2019-04-06T15:14:19.631Z,9.40
2019-04-06T15:17:06.002Z,8.40
2019-04-06T15:19:36.680Z,7.40
2019-04-06T15:22:23.799Z,8.60
2019-04-06T15:24:57.219Z,7.65
2019-04-06T15:27:33.644Z,7.37
2019-04-06T15:30:04.210Z,6.77
2019-04-06T15:32:39.495Z,5.47
2019-04-06T15:35:10.261Z,8.50
2019-04-06T15:37:46.711Z,7.30
2019-04-06T15:40:23.067Z,7.47
2019-04-06T15:43:10.417Z,6.47
2019-04-06T15:45:46.441Z,7.57
2019-04-06T15:48:19.952Z,7.37
2019-04-06T15:51:07.394Z,7.70
2019-04-06T15:53:43.785Z,6.30
2019-04-06T15:56:30.310Z,8.00
2019-04-06T15:59:03.314Z,6.93
2019-04-06T16:01:42.514Z,7.93
2019-04-06T16:04:31.217Z,6.43
2019-04-06T16:07:14.105Z,6.93
2019-04-06T16:09:56.850Z,8.85
2019-04-06T16:12:42.766Z,9.57
2019-04-06T16:15:13.886Z,8.17
2019-04-06T16:17:44.569Z,8.87
2019-04-06T16:20:30.365Z,8.93
2019-04-06T16:23:17.274Z,8.00
2019-04-06T16:25:47.601Z,7.45
2019-04-06T16:28:20.734Z,8.13
2019-04-06T16:31:07.199Z,8.27
2019-04-06T16:33:40.423Z,8.80
2019-04-06T16:36:10.932Z,9.80
2019-04-06T16:38:57.851Z,10.53
2019-04-06T16:41:31.299Z,9.20
2019-04-06T16:44:10.823Z,7.37
2019-04-06T16:46:53.212Z,10.07
2019-04-06T16:49:39.096Z,10.50
2019-04-06T16:52:27.249Z,10.63
2019-04-06T16:55:12.533Z,6.97
2019-04-06T16:57:59.250Z,10.37
2019-04-06T17:00:32.355Z,10.50
2019-04-06T17:03:03.051Z,9.67
2019-04-06T17:05:36.403Z,9.50
2019-04-06T17:08:15.903Z,10.73
2019-04-06T17:11:02.981Z,11.13
2019-04-06T17:13:33.356Z,10.33
2019-04-06T17:16:19.043Z,8.03
2019-04-06T17:18:49.292Z,9.53
2019-04-06T17:21:45.471Z,9.87
2019-04-06T17:24:31.506Z,10.47
2019-04-06T17:27:07.506Z,9.57
2019-04-06T17:29:56.328Z,11.23
2019-04-06T17:32:43.637Z,10.73
2019-04-06T17:35:20.082Z,10.37
2019-04-06T17:37:52.182Z,9.40
2019-04-06T17:40:29.909Z,11.20
2019-04-06T17:43:02.969Z,11.63
2019-04-06T17:45:33.467Z,11.50
2019-04-06T17:48:20.338Z,12.00
2019-04-06T17:51:08.914Z,11.90
2019-04-06T17:53:39.808Z,12.83
2019-04-06T17:56:18.357Z,11.77
2019-04-06T17:58:48.904Z,11.80
2019-04-06T18:01:25.310Z,12.63
2019-04-06T18:04:05.072Z,13.27
2019-04-06T18:06:52.213Z,13.10
2019-04-06T18:09:34.539Z,13.27
2019-04-06T18:12:40.651Z,13.97
2019-04-06T18:15:09.854Z,13.97
2019-04-06T18:17:39.262Z,14.27
2019-04-06T18:20:09.514Z,14.73
2019-04-06T18:22:38.375Z,14.67
2019-04-06T18:25:09.302Z,14.80
2019-04-06T18:27:39.673Z,14.90
2019-04-06T18:30:10.728Z,15.17
2019-04-06T18:32:57.064Z,16.40
2019-04-06T18:35:16.698Z,15.83
2019-04-06T18:37:55.921Z,14.83
2019-04-06T18:40:26.066Z,16.83
2019-04-06T18:42:55.121Z,18.10
2019-04-06T18:45:24.567Z,17.07
2019-04-06T18:47:53.290Z,17.10
2019-04-06T18:50:32.701Z,18.30
2019-04-06T18:52:52.516Z,18.70
2019-04-06T18:55:21.460Z,17.80
2019-04-06T18:57:50.808Z,18.77
2019-04-06T19:00:20.748Z,18.90
2019-04-06T19:02:49.625Z,19.83
2019-04-06T19:05:18.655Z,18.23
2019-04-06T19:07:47.511Z,19.37
2019-04-06T19:10:16.745Z,19.50
2019-04-06T19:12:45.634Z,19.53
2019-04-06T19:15:14.768Z,21.07
2019-04-06T19:17:43.953Z,21.20
2019-04-06T19:21:02.922Z,20.67
2019-04-06T19:23:10.362Z,20.27
2019-04-06T19:25:39.646Z,19.97
2019-04-06T19:28:08.809Z,19.07
2019-04-06T19:30:38.050Z,19.87
2019-04-06T19:33:07.010Z,21.07
2019-04-06T19:35:35.866Z,21.73
2019-04-06T19:38:04.822Z,20.33
2019-04-06T19:40:39.754Z,20.50
2019-04-06T19:43:11.780Z,20.47
2019-04-06T19:45:40.870Z,21.10
2019-04-06T19:48:09.839Z,21.20
2019-04-06T19:50:38.651Z,22.07
2019-04-06T19:53:07.455Z,21.97
2019-04-06T19:55:36.609Z,21.27
2019-04-06T19:58:05.924Z,21.73
2019-04-06T20:00:35.463Z,21.83
2019-04-06T20:03:04.382Z,21.93
2019-04-06T20:05:33.360Z,21.87
2019-04-06T20:08:02.194Z,22.40
2019-04-06T20:10:30.898Z,19.63
2019-04-06T20:12:59.742Z,20.43
2019-04-06T20:15:28.748Z,20.50
2019-04-06T20:17:58.032Z,20.40
2019-04-06T20:20:26.810Z,19.80
2019-04-06T20:22:55.764Z,19.40
2019-04-06T20:25:25.211Z,20.40
2019-04-06T20:27:53.931Z,19.20
2019-04-06T20:30:23.097Z,19.40
2019-04-06T20:32:51.870Z,20.23
2019-04-06T20:35:21.207Z,21.33
2019-04-06T20:37:50.172Z,20.47
2019-04-06T20:40:19.064Z,21.13
2019-04-06T20:42:48.255Z,21.10
2019-04-06T20:45:17.176Z,21.77
2019-04-06T20:47:46.310Z,21.30
2019-04-06T20:50:15.332Z,21.63
2019-04-06T20:52:44.267Z,24.07
2019-04-06T20:55:13.254Z,23.10
2019-04-06T20:57:42.633Z,26.50
2019-04-06T21:00:13.093Z,25.33
2019-04-06T21:02:41.744Z,25.93
2019-04-06T21:05:11.361Z,26.63
2019-04-06T21:07:40.481Z,27.33
2019-04-06T21:10:09.999Z,28.70
2019-04-06T21:12:38.749Z,28.10
2019-04-06T21:15:17.719Z,29.53
2019-04-06T21:17:39.787Z,28.87
2019-04-06T21:20:09.135Z,29.10
2019-04-06T21:22:37.910Z,25.53
2019-04-06T21:25:07.953Z,27.87
2019-04-06T21:27:37.507Z,27.73
2019-04-06T21:30:08.271Z,28.47
2019-04-06T21:32:37.275Z,26.10
2019-04-06T21:35:08.269Z,25.17
2019-04-06T21:37:43.784Z,25.03
2019-04-06T21:40:13.041Z,25.83
2019-04-06T21:42:42.041Z,24.77
2019-04-06T21:45:12.080Z,24.20
2019-04-06T21:47:41.088Z,23.90
2019-04-06T21:50:10.996Z,25.00
2019-04-06T21:52:40.431Z,24.53
2019-04-06T21:55:12.390Z,25.10
2019-04-06T21:57:41.092Z,24.30
2019-04-06T22:00:13.171Z,24.03
2019-04-06T22:02:42.144Z,24.87
2019-04-06T22:05:11.075Z,23.87
2019-04-06T22:07:48.614Z,24.83
2019-04-06T22:10:10.677Z,25.13
2019-04-06T22:12:39.980Z,24.13
2019-04-06T22:15:12.489Z,25.17
2019-04-06T22:17:42.141Z,24.20
2019-04-06T22:20:12.274Z,22.93
2019-04-06T22:22:41.656Z,25.23
2019-04-06T22:25:11.167Z,23.27
2019-04-06T22:27:40.148Z,24.23
2019-04-06T22:30:10.155Z,24.53
2019-04-06T22:32:39.319Z,24.23
2019-04-06T22:35:08.933Z,25.00
2019-04-06T22:37:54.251Z,23.50
2019-04-06T22:43:14.844Z,24.00
2019-04-06T22:45:43.805Z,24.67
2019-04-06T22:48:12.643Z,23.90
2019-04-06T22:50:41.888Z,24.70
2019-04-06T22:53:10.782Z,22.90
2019-04-06T22:55:40.218Z,23.03
2019-04-06T22:58:10.667Z,23.50
2019-04-06T23:00:41.026Z,22.47
2019-04-06T23:03:28.546Z,23.73
2019-04-06T23:05:59.662Z,24.27
2019-04-06T23:08:28.983Z,23.17
2019-04-06T23:10:58.112Z,23.27
2019-04-06T23:13:26.891Z,22.70
2019-04-06T23:15:55.798Z,22.10
2019-04-06T23:18:24.535Z,22.40
2019-04-06T23:20:53.879Z,21.83
2019-04-06T23:23:22.720Z,21.50
2019-04-06T23:25:51.845Z,20.00
2019-04-06T23:28:21.682Z,20.70
2019-04-06T23:30:51.008Z,20.77
2019-04-06T23:33:20.106Z,22.10
2019-04-06T23:35:48.915Z,20.60
2019-04-06T23:38:29.625Z,20.83
2019-04-06T23:40:58.256Z,20.83
2019-04-06T23:43:27.684Z,19.83
2019-04-06T23:45:57.125Z,20.30
2019-04-06T23:48:26.784Z,21.63
2019-04-06T23:50:56.131Z,21.50
2019-04-06T23:53:25.355Z,21.63
2019-04-06T23:55:54.380Z,22.00
2019-04-06T23:58:23.242Z,19.73
